createdAt,value
2018-06-20T00:00:07.830Z,15.73
2018-06-20T00:02:36.504Z,15.60
2018-06-20T00:05:05.132Z,15.58
2018-06-20T00:07:33.690Z,15.65
2018-06-20T00:10:02.278Z,15.50
2018-06-20T00:12:30.838Z,15.65
2018-06-20T00:14:59.595Z,15.64
2018-06-20T00:17:28.137Z,15.68
2018-06-20T00:19:56.722Z,15.71
2018-06-20T00:22:25.281Z,15.60
2018-06-20T00:24:53.857Z,15.57
2018-06-20T00:27:22.452Z,15.54
2018-06-20T00:29:51.041Z,15.62
2018-06-20T00:32:20.440Z,15.51
2018-06-20T00:34:49.040Z,15.62
2018-06-20T00:37:17.576Z,15.66
2018-06-20T00:39:46.155Z,15.74
2018-06-20T00:42:14.696Z,15.67
2018-06-20T00:44:43.286Z,15.57
2018-06-20T00:47:11.841Z,15.61
2018-06-20T00:49:40.425Z,15.55
2018-06-20T00:52:08.976Z,15.47
2018-06-20T00:54:37.546Z,15.41
2018-06-20T00:57:06.111Z,15.56
2018-06-20T00:59:35.606Z,15.51
2018-06-20T01:02:04.182Z,15.62
2018-06-20T01:04:32.780Z,15.52
2018-06-20T01:07:01.309Z,15.60
2018-06-20T01:09:29.838Z,15.71
2018-06-20T01:11:58.566Z,15.76
2018-06-20T01:14:26.969Z,15.79
2018-06-20T01:16:55.770Z,15.75
2018-06-20T01:19:24.290Z,15.78
2018-06-20T01:21:52.865Z,15.75
2018-06-20T01:24:21.404Z,15.60
2018-06-20T01:26:49.968Z,15.71
2018-06-20T01:29:18.504Z,15.80
2018-06-20T01:31:47.073Z,15.76
2018-06-20T01:34:15.624Z,15.75
2018-06-20T01:36:44.561Z,15.80
2018-06-20T01:39:13.164Z,15.76
2018-06-20T01:41:42.133Z,15.83
2018-06-20T01:44:10.666Z,15.74
2018-06-20T01:46:39.257Z,15.74
2018-06-20T01:49:08.252Z,15.77
2018-06-20T01:51:37.153Z,15.83
2018-06-20T01:54:06.348Z,15.74
2018-06-20T01:56:35.780Z,15.75
2018-06-20T01:59:04.324Z,15.75
2018-06-20T02:01:32.888Z,15.62
2018-06-20T02:04:01.456Z,15.60
2018-06-20T02:06:30.076Z,15.55
2018-06-20T02:08:59.001Z,15.46
2018-06-20T02:11:29.157Z,15.40
2018-06-20T02:13:57.736Z,15.40
2018-06-20T02:16:26.308Z,15.38
2018-06-20T02:18:54.917Z,15.38
2018-06-20T02:21:23.464Z,15.30
2018-06-20T02:23:51.989Z,15.49
2018-06-20T02:26:20.571Z,15.09
2018-06-20T02:28:49.097Z,15.14
2018-06-20T02:31:17.660Z,15.17
2018-06-20T02:33:46.185Z,15.11
2018-06-20T02:36:19.897Z,15.19
2018-06-20T02:38:48.445Z,15.22
2018-06-20T02:41:17.015Z,15.21
2018-06-20T02:43:45.576Z,15.12
2018-06-20T02:46:14.137Z,15.06
2018-06-20T02:48:42.666Z,15.11
2018-06-20T02:51:11.234Z,14.91
2018-06-20T02:53:39.768Z,15.07
2018-06-20T02:56:08.347Z,15.05
2018-06-20T02:58:36.965Z,14.89
2018-06-20T03:01:05.534Z,14.76
2018-06-20T03:03:34.133Z,14.78
2018-06-20T03:06:02.665Z,14.89
2018-06-20T03:08:31.244Z,15.02
2018-06-20T03:10:59.776Z,14.99
2018-06-20T03:13:28.340Z,14.94
2018-06-20T03:15:56.866Z,15.00
2018-06-20T03:18:25.482Z,14.89
2018-06-20T03:20:54.013Z,14.94
2018-06-20T03:23:22.586Z,14.92
2018-06-20T03:25:51.126Z,14.90
2018-06-20T03:28:19.704Z,14.81
2018-06-20T03:30:48.249Z,14.75
2018-06-20T03:33:16.809Z,14.77
2018-06-20T03:35:45.344Z,14.74
2018-06-20T03:38:13.913Z,14.80
2018-06-20T03:40:42.466Z,14.72
2018-06-20T03:43:11.048Z,14.60
2018-06-20T03:45:39.576Z,14.72
2018-06-20T03:48:08.135Z,14.59
2018-06-20T03:50:37.132Z,14.71
2018-06-20T03:53:05.708Z,14.70
2018-06-20T03:55:34.249Z,14.66
2018-06-20T03:58:02.811Z,14.63
2018-06-20T04:00:31.349Z,14.74
2018-06-20T04:02:59.936Z,14.59
2018-06-20T04:05:30.260Z,14.57
2018-06-20T04:07:59.256Z,14.65
2018-06-20T04:10:27.853Z,14.67
2018-06-20T04:12:56.417Z,14.71
2018-06-20T04:15:24.940Z,14.72
2018-06-20T04:17:53.508Z,14.73
2018-06-20T04:20:22.065Z,14.80
2018-06-20T04:22:50.626Z,14.84
2018-06-20T04:25:19.165Z,14.91
2018-06-20T04:27:47.749Z,14.93
2018-06-20T04:30:16.274Z,14.92
2018-06-20T04:32:44.835Z,14.97
2018-06-20T04:35:13.364Z,15.07
2018-06-20T04:37:41.914Z,15.17
2018-06-20T04:40:10.448Z,15.16
2018-06-20T04:42:39.016Z,15.08
2018-06-20T04:45:07.547Z,15.19
2018-06-20T04:47:36.116Z,15.14
2018-06-20T04:50:04.678Z,15.10
2018-06-20T04:52:33.625Z,15.22
2018-06-20T04:55:03.593Z,15.36
2018-06-20T04:57:32.116Z,15.38
2018-06-20T05:00:02.134Z,15.49
2018-06-20T05:02:30.772Z,15.65
2018-06-20T05:04:59.625Z,15.67
2018-06-20T05:07:28.352Z,15.73
2018-06-20T05:10:00.088Z,15.88
2018-06-20T05:12:29.253Z,15.97
2018-06-20T05:14:58.211Z,16.15
2018-06-20T05:17:27.158Z,16.20
2018-06-20T05:19:55.801Z,16.32
2018-06-20T05:22:24.335Z,16.33
2018-06-20T05:24:52.904Z,16.38
2018-06-20T05:27:21.438Z,16.43
2018-06-20T05:29:50.001Z,16.46
2018-06-20T05:32:18.520Z,16.52
2018-06-20T05:34:53.709Z,16.61
2018-06-20T05:37:22.373Z,16.70
2018-06-20T05:39:50.977Z,16.79
2018-06-20T05:42:19.545Z,16.92
2018-06-20T05:44:48.101Z,17.02
2018-06-20T05:47:16.692Z,17.14
2018-06-20T05:49:45.681Z,17.18
2018-06-20T05:52:14.205Z,17.32
2018-06-20T05:54:44.722Z,17.42
2018-06-20T05:57:13.249Z,17.50
2018-06-20T05:59:41.817Z,17.61
2018-06-20T06:02:10.389Z,17.68
2018-06-20T06:04:38.956Z,17.84
2018-06-20T06:07:08.041Z,17.97
2018-06-20T06:09:36.601Z,18.08
2018-06-20T06:12:05.185Z,18.20
2018-06-20T06:14:33.696Z,18.33
2018-06-20T06:17:02.406Z,18.42
2018-06-20T06:19:30.968Z,18.53
2018-06-20T06:21:59.497Z,18.60
2018-06-20T06:24:28.927Z,18.70
2018-06-20T06:27:00.202Z,18.76
2018-06-20T06:29:28.849Z,18.84
2018-06-20T06:31:57.585Z,18.92
2018-06-20T06:34:26.148Z,19.02
2018-06-20T06:36:54.677Z,19.07
2018-06-20T06:39:23.233Z,19.13
2018-06-20T06:41:51.749Z,19.21
2018-06-20T06:44:20.302Z,19.20
2018-06-20T06:46:48.834Z,19.32
2018-06-20T06:49:17.397Z,19.37
2018-06-20T06:51:45.920Z,19.49
2018-06-20T06:54:14.433Z,19.57
2018-06-20T06:56:42.985Z,19.62
2018-06-20T06:59:11.505Z,19.71
2018-06-20T07:01:40.065Z,19.77
2018-06-20T07:04:08.631Z,19.85
2018-06-20T07:06:38.262Z,19.83
2018-06-20T07:09:08.161Z,19.99
2018-06-20T07:11:36.725Z,20.03
2018-06-20T07:14:05.362Z,20.12
2018-06-20T07:16:33.925Z,20.19
2018-06-20T07:19:02.455Z,20.26
2018-06-20T07:21:31.017Z,20.31
2018-06-20T07:23:59.613Z,20.44
2018-06-20T07:26:28.506Z,20.56
2018-06-20T07:28:57.188Z,20.59
2018-06-20T07:31:25.773Z,20.85
2018-06-20T07:33:54.413Z,20.78
2018-06-20T07:36:23.033Z,20.87
2018-06-20T07:38:51.557Z,20.99
2018-06-20T07:41:20.115Z,21.11
2018-06-20T07:43:48.984Z,21.21
2018-06-20T07:46:17.533Z,21.28
2018-06-20T07:48:46.092Z,21.35
2018-06-20T07:51:14.657Z,21.34
2018-06-20T07:53:43.177Z,21.41
2018-06-20T07:56:11.735Z,21.46
2018-06-20T07:58:45.665Z,21.49
2018-06-20T08:01:29.633Z,21.56
2018-06-20T08:04:03.345Z,21.66
2018-06-20T08:06:37.300Z,21.74
2018-06-20T08:09:13.163Z,21.72
2018-06-20T08:11:47.415Z,21.67
2018-06-20T08:14:21.172Z,21.68
2018-06-20T08:16:56.657Z,21.93
2018-06-20T08:19:30.562Z,21.98
2018-06-20T08:21:59.121Z,22.04
2018-06-20T08:24:27.637Z,22.20
2018-06-20T08:26:56.217Z,22.21
2018-06-20T08:29:24.738Z,22.19
2018-06-20T08:31:53.367Z,22.43
2018-06-20T08:34:21.889Z,22.53
2018-06-20T08:36:52.268Z,22.53
2018-06-20T08:39:20.828Z,22.39
2018-06-20T08:41:50.944Z,22.39
2018-06-20T08:44:22.249Z,22.32
2018-06-20T08:46:53.270Z,22.44
2018-06-20T08:49:22.174Z,22.83
2018-06-20T08:51:53.636Z,22.85
2018-06-20T08:54:22.181Z,22.77
2018-06-20T08:56:54.246Z,22.76
2018-06-20T08:59:26.482Z,22.77
2018-06-20T09:02:02.161Z,22.67
2018-06-20T09:04:38.386Z,22.64
2018-06-20T09:07:15.401Z,22.68
2018-06-20T09:09:52.429Z,22.75
2018-06-20T09:12:28.956Z,22.96
2018-06-20T09:15:02.721Z,23.07
2018-06-20T09:17:36.540Z,23.18
2018-06-20T09:20:07.077Z,23.25
2018-06-20T09:22:35.927Z,23.13
2018-06-20T09:25:06.673Z,23.22
2018-06-20T09:27:36.776Z,23.30
2018-06-20T09:30:07.487Z,23.45
2018-06-20T09:32:36.057Z,23.43
2018-06-20T09:35:04.648Z,23.72
2018-06-20T09:37:33.194Z,23.76
2018-06-20T09:40:02.084Z,23.80
2018-06-20T09:42:33.728Z,23.86
2018-06-20T09:45:02.553Z,23.76
2018-06-20T09:47:31.105Z,23.69
2018-06-20T09:50:03.952Z,23.87
2018-06-20T09:52:32.505Z,23.92
2018-06-20T09:55:05.237Z,23.76
2018-06-20T09:57:34.171Z,23.76
2018-06-20T10:00:07.931Z,23.82
2018-06-20T10:02:42.485Z,23.85
2018-06-20T10:05:16.434Z,24.03
2018-06-20T10:07:50.262Z,24.04
2018-06-20T10:10:25.177Z,24.03
2018-06-20T10:13:01.916Z,24.20
2018-06-20T10:15:31.440Z,24.42
2018-06-20T10:18:00.149Z,24.45
2018-06-20T10:20:29.883Z,24.51
2018-06-20T10:23:00.177Z,24.38
2018-06-20T10:25:29.810Z,24.50
2018-06-20T10:28:03.576Z,24.62
2018-06-20T10:30:32.361Z,24.57
2018-06-20T10:33:01.032Z,24.66
2018-06-20T10:35:29.589Z,24.62
2018-06-20T10:37:58.120Z,24.76
2018-06-20T10:40:27.650Z,24.90
2018-06-20T10:42:56.192Z,25.21
2018-06-20T10:45:30.041Z,25.28
2018-06-20T10:48:13.113Z,25.35
2018-06-20T10:50:42.400Z,25.31
2018-06-20T10:53:12.670Z,25.22
2018-06-20T10:55:41.641Z,25.16
2018-06-20T10:58:16.150Z,25.17
2018-06-20T11:00:50.580Z,25.19
2018-06-20T11:03:25.306Z,25.08
2018-06-20T11:05:59.822Z,25.06
2018-06-20T11:08:33.929Z,25.11
2018-06-20T11:11:08.121Z,25.06
2018-06-20T11:13:36.816Z,25.25
2018-06-20T11:16:05.529Z,25.15
2018-06-20T11:18:35.884Z,25.25
2018-06-20T11:21:04.453Z,25.15
2018-06-20T11:23:32.996Z,25.24
2018-06-20T11:26:01.561Z,25.24
2018-06-20T11:28:30.076Z,25.33
2018-06-20T11:30:58.640Z,25.52
2018-06-20T11:33:27.208Z,26.05
2018-06-20T11:35:57.050Z,25.98
2018-06-20T11:38:30.597Z,25.76
2018-06-20T11:40:59.319Z,25.69
2018-06-20T11:43:35.103Z,25.74
2018-06-20T11:46:13.330Z,25.91
2018-06-20T11:48:49.648Z,25.86
2018-06-20T11:51:29.563Z,25.89
2018-06-20T11:53:58.149Z,26.28
2018-06-20T11:56:30.773Z,26.13
2018-06-20T11:59:05.899Z,26.13
2018-06-20T12:01:41.755Z,26.21
2018-06-20T12:04:20.151Z,26.11
2018-06-20T12:06:53.960Z,26.31
2018-06-20T12:09:31.835Z,26.46
2018-06-20T12:12:07.743Z,26.01
2018-06-20T12:14:51.461Z,25.73
2018-06-20T12:17:37.808Z,25.95
2018-06-20T12:20:18.055Z,26.25
2018-06-20T12:22:55.828Z,26.73
2018-06-20T12:25:32.987Z,26.70
2018-06-20T12:28:08.255Z,26.72
2018-06-20T12:30:42.092Z,26.28
2018-06-20T12:33:19.087Z,26.32
2018-06-20T12:35:53.801Z,26.98
2018-06-20T12:38:28.854Z,26.97
2018-06-20T12:41:05.608Z,26.81
2018-06-20T12:43:40.019Z,26.98
2018-06-20T12:46:14.905Z,27.18
2018-06-20T12:48:43.448Z,27.06
2018-06-20T12:51:12.013Z,27.09
2018-06-20T12:53:40.538Z,27.09
2018-06-20T12:56:09.118Z,27.21
2018-06-20T12:58:37.645Z,27.05
2018-06-20T13:01:06.176Z,27.21
2018-06-20T13:03:34.768Z,27.46
2018-06-20T13:06:03.305Z,27.31
2018-06-20T13:08:32.591Z,27.14
2018-06-20T13:11:08.078Z,27.34
2018-06-20T13:13:37.250Z,27.21
2018-06-20T13:16:05.935Z,27.43
2018-06-20T13:18:35.431Z,27.52
2018-06-20T13:21:04.225Z,27.59
2018-06-20T13:23:32.977Z,27.72
2018-06-20T13:26:01.504Z,27.49
2018-06-20T13:28:30.912Z,27.39
2018-06-20T13:31:04.593Z,27.39
2018-06-20T13:34:43.886Z,27.43
2018-06-20T13:37:19.171Z,27.52
2018-06-20T13:39:53.915Z,27.62
2018-06-20T13:43:32.504Z,27.79
2018-06-20T13:46:06.959Z,28.03
2018-06-20T13:48:36.795Z,28.20
2018-06-20T13:51:05.373Z,28.43
2018-06-20T13:53:33.933Z,28.19
2018-06-20T13:56:02.519Z,28.11
2018-06-20T13:58:31.053Z,28.28
2018-06-20T14:00:59.581Z,27.97
2018-06-20T14:03:28.250Z,27.84
2018-06-20T14:05:56.773Z,27.55
2018-06-20T14:08:25.335Z,27.70
2018-06-20T14:10:53.885Z,27.88
2018-06-20T14:13:22.440Z,28.04
2018-06-20T14:15:51.177Z,27.99
2018-06-20T14:18:19.901Z,28.05
2018-06-20T14:20:53.788Z,28.17
2018-06-20T14:23:22.573Z,28.51
2018-06-20T14:25:51.324Z,28.58
2018-06-20T14:28:20.092Z,28.15
2018-06-20T14:30:53.997Z,28.25
2018-06-20T14:33:28.143Z,28.28
2018-06-20T14:36:02.002Z,28.44
2018-06-20T14:38:35.953Z,28.07
2018-06-20T14:41:21.240Z,28.24
2018-06-20T14:43:55.800Z,28.47
2018-06-20T14:46:25.730Z,28.49
2018-06-20T14:48:54.316Z,28.68
2018-06-20T14:51:23.081Z,28.80
2018-06-20T14:53:51.651Z,28.61
2018-06-20T14:56:20.173Z,28.70
2018-06-20T14:58:48.701Z,28.41
2018-06-20T15:01:17.250Z,28.56
2018-06-20T15:03:45.800Z,28.29
2018-06-20T15:06:14.461Z,28.45
2018-06-20T15:08:43.673Z,28.71
2018-06-20T15:11:12.485Z,29.04
2018-06-20T15:13:41.012Z,29.00
2018-06-20T15:16:15.112Z,28.95
2018-06-20T15:18:43.661Z,28.98
2018-06-20T15:21:12.220Z,28.92
2018-06-20T15:23:40.744Z,29.36
2018-06-20T15:26:14.597Z,29.33
2018-06-20T15:28:49.031Z,29.39
2018-06-20T15:31:22.753Z,29.54
2018-06-20T15:35:00.501Z,29.36
2018-06-20T15:37:34.351Z,29.16
2018-06-20T15:40:03.296Z,29.27
2018-06-20T15:42:31.819Z,29.44
2018-06-20T15:45:00.391Z,29.25
2018-06-20T15:47:28.913Z,29.61
2018-06-20T15:49:57.475Z,29.32
2018-06-20T15:52:26.002Z,29.34
2018-06-20T15:54:54.790Z,29.42
2018-06-20T15:57:23.334Z,29.38
2018-06-20T15:59:51.860Z,29.34
2018-06-20T16:02:20.453Z,29.43
2018-06-20T16:04:48.976Z,29.52
2018-06-20T16:07:17.531Z,29.46
2018-06-20T16:09:51.358Z,29.62
2018-06-20T16:12:19.880Z,29.60
2018-06-20T16:14:48.414Z,29.72
2018-06-20T16:17:17.016Z,29.85
2018-06-20T16:19:50.867Z,29.67
2018-06-20T16:22:24.603Z,29.71
2018-06-20T16:24:58.332Z,29.87
2018-06-20T16:27:32.011Z,30.08
2018-06-20T16:30:05.585Z,29.85
2018-06-20T16:32:34.140Z,30.07
2018-06-20T16:35:03.121Z,30.49
2018-06-20T16:37:31.835Z,30.32
2018-06-20T16:40:00.214Z,30.48
2018-06-20T16:42:28.770Z,31.01
2018-06-20T16:44:57.294Z,35.02
2018-06-20T16:47:25.841Z,38.04
2018-06-20T16:49:54.373Z,40.73
2018-06-20T16:52:23.203Z,41.28
2018-06-20T16:54:51.721Z,40.48
2018-06-20T16:57:20.276Z,39.87
2018-06-20T16:59:48.789Z,41.12
2018-06-20T17:02:22.709Z,41.02
2018-06-20T17:04:51.445Z,38.21
2018-06-20T17:07:20.005Z,37.25
2018-06-20T17:09:49.220Z,41.50
2018-06-20T17:12:23.019Z,39.56
2018-06-20T17:14:56.861Z,39.13
2018-06-20T17:17:30.809Z,40.00
2018-06-20T17:20:04.587Z,39.40
2018-06-20T17:22:38.421Z,38.56
2018-06-20T17:25:12.177Z,39.95
2018-06-20T17:27:40.758Z,37.06
2018-06-20T17:30:09.328Z,39.00
2018-06-20T17:32:37.881Z,37.17
2018-06-20T17:35:06.437Z,35.03
2018-06-20T17:37:34.988Z,35.97
2018-06-20T17:40:03.613Z,38.74
2018-06-20T17:42:32.180Z,38.22
2018-06-20T17:45:00.711Z,39.31
2018-06-20T17:47:29.278Z,38.13
2018-06-20T17:49:58.073Z,38.40
2018-06-20T17:52:26.687Z,38.97
2018-06-20T17:54:55.225Z,37.04
2018-06-20T17:57:23.784Z,36.18
2018-06-20T17:59:52.345Z,34.79
2018-06-20T18:02:20.908Z,34.96
2018-06-20T18:04:54.745Z,33.70
2018-06-20T18:07:28.355Z,32.75
2018-06-20T18:10:01.984Z,32.54
2018-06-20T18:12:38.549Z,32.74
2018-06-20T18:15:12.743Z,32.40
2018-06-20T18:17:41.736Z,32.56
2018-06-20T18:20:10.310Z,32.30
2018-06-20T18:22:38.917Z,32.17
2018-06-20T18:25:07.484Z,32.13
2018-06-20T18:27:36.024Z,31.64
2018-06-20T18:30:04.745Z,31.91
2018-06-20T18:32:33.330Z,31.75
2018-06-20T18:35:02.089Z,31.96
2018-06-20T18:37:30.648Z,32.03
2018-06-20T18:40:06.009Z,31.50
2018-06-20T18:42:36.213Z,31.23
2018-06-20T18:45:04.940Z,31.16
2018-06-20T18:47:38.656Z,30.83
2018-06-20T18:50:07.732Z,30.73
2018-06-20T18:52:36.285Z,30.02
2018-06-20T18:55:04.912Z,29.23
2018-06-20T18:57:38.693Z,28.69
2018-06-20T19:00:13.372Z,28.79
2018-06-20T19:02:47.238Z,28.38
2018-06-20T19:05:20.957Z,27.78
2018-06-20T19:07:54.851Z,27.75
2018-06-20T19:10:23.412Z,27.48
2018-06-20T19:12:51.928Z,27.20
2018-06-20T19:15:20.473Z,26.86
2018-06-20T19:17:48.993Z,26.64
2018-06-20T19:20:17.541Z,26.50
2018-06-20T19:22:46.061Z,26.18
2018-06-20T19:25:14.612Z,25.65
2018-06-20T19:27:43.180Z,25.79
2018-06-20T19:30:11.738Z,25.66
2018-06-20T19:32:40.247Z,25.45
2018-06-20T19:35:08.816Z,25.44
2018-06-20T19:37:37.360Z,25.39
2018-06-20T19:40:05.881Z,25.02
2018-06-20T19:42:34.458Z,24.95
2018-06-20T19:45:03.058Z,24.74
2018-06-20T19:47:31.577Z,24.67
2018-06-20T19:50:00.365Z,24.25
2018-06-20T19:52:28.914Z,24.39
2018-06-20T19:54:57.429Z,24.23
2018-06-20T19:57:25.976Z,24.15
2018-06-20T19:59:54.489Z,24.13
2018-06-20T20:02:23.100Z,24.02
2018-06-20T20:04:51.624Z,23.62
2018-06-20T20:07:20.178Z,23.33
2018-06-20T20:09:48.711Z,23.08
2018-06-20T20:12:17.715Z,22.98
2018-06-20T20:14:46.234Z,23.02
2018-06-20T20:17:15.713Z,22.72
2018-06-20T20:19:44.234Z,22.64
2018-06-20T20:22:12.792Z,22.70
2018-06-20T20:24:41.312Z,22.80
2018-06-20T20:27:09.877Z,22.78
2018-06-20T20:29:38.397Z,22.49
2018-06-20T20:32:06.950Z,22.37
2018-06-20T20:34:35.481Z,22.26
2018-06-20T20:37:04.058Z,22.08
2018-06-20T20:39:32.565Z,22.01
2018-06-20T20:42:01.120Z,21.85
2018-06-20T20:44:29.752Z,22.09
2018-06-20T20:46:58.564Z,21.97
2018-06-20T20:49:27.345Z,21.76
2018-06-20T20:51:56.117Z,20.92
2018-06-20T20:54:24.678Z,21.04
2018-06-20T20:56:53.262Z,20.57
2018-06-20T20:59:21.836Z,21.09
2018-06-20T21:01:50.377Z,21.23
2018-06-20T21:04:18.974Z,21.31
2018-06-20T21:06:47.676Z,21.35
2018-06-20T21:09:16.224Z,21.23
2018-06-20T21:11:49.183Z,21.22
2018-06-20T21:14:17.981Z,21.12
2018-06-20T21:16:53.576Z,21.18
2018-06-20T21:19:26.737Z,21.12
2018-06-20T21:22:01.668Z,20.86
2018-06-20T21:24:34.300Z,20.82
2018-06-20T21:27:05.722Z,21.04
2018-06-20T21:29:36.244Z,20.99
2018-06-20T21:32:05.226Z,20.87
2018-06-20T21:34:36.669Z,20.90
2018-06-20T21:37:09.826Z,20.73
2018-06-20T21:39:42.348Z,20.57
2018-06-20T21:42:12.906Z,20.57
2018-06-20T21:44:44.130Z,20.25
2018-06-20T21:47:14.543Z,20.28
2018-06-20T21:49:45.609Z,20.13
2018-06-20T21:52:16.094Z,20.21
2018-06-20T21:54:48.373Z,20.16
2018-06-20T21:57:20.594Z,20.17
2018-06-20T21:59:50.586Z,20.19
2018-06-20T22:02:21.633Z,20.02
2018-06-20T22:04:55.325Z,20.08
2018-06-20T22:07:25.903Z,19.89
2018-06-20T22:10:00.860Z,19.60
2018-06-20T22:12:31.377Z,19.70
2018-06-20T22:15:01.619Z,19.72
2018-06-20T22:17:30.137Z,19.50
2018-06-20T22:20:00.390Z,19.66
2018-06-20T22:22:32.400Z,19.49
2018-06-20T22:25:03.157Z,19.48
2018-06-20T22:27:35.341Z,19.48
2018-06-20T22:30:09.692Z,19.37
2018-06-20T22:32:41.339Z,19.54
2018-06-20T22:35:10.013Z,19.68
2018-06-20T22:37:38.550Z,19.45
2018-06-20T22:40:07.159Z,19.45
2018-06-20T22:42:40.578Z,19.37
2018-06-20T22:45:13.304Z,19.35
2018-06-20T22:47:42.695Z,19.15
2018-06-20T22:50:13.301Z,19.26
2018-06-20T22:52:44.509Z,19.31
2018-06-20T22:55:15.993Z,19.10
2018-06-20T22:57:45.278Z,18.86
2018-06-20T23:00:14.718Z,18.91
2018-06-20T23:02:43.265Z,19.06
2018-06-20T23:05:11.845Z,18.90
2018-06-20T23:07:40.364Z,18.69
2018-06-20T23:10:08.889Z,18.48
2018-06-20T23:12:37.449Z,18.44
2018-06-20T23:15:06.258Z,18.61
2018-06-20T23:17:34.805Z,18.63
2018-06-20T23:20:03.333Z,18.76
2018-06-20T23:22:31.889Z,18.85
2018-06-20T23:25:00.401Z,18.78
2018-06-20T23:27:28.973Z,18.69
2018-06-20T23:29:57.557Z,18.61
2018-06-20T23:32:26.110Z,18.64
2018-06-20T23:34:54.619Z,18.58
2018-06-20T23:37:23.165Z,18.47
2018-06-20T23:39:51.681Z,18.39
2018-06-20T23:42:20.241Z,18.44
2018-06-20T23:44:48.761Z,18.42
2018-06-20T23:47:18.297Z,18.37
2018-06-20T23:49:46.817Z,18.39
2018-06-20T23:52:15.600Z,18.09
2018-06-20T23:54:44.133Z,18.28
2018-06-20T23:57:12.708Z,18.14
2018-06-20T23:59:41.223Z,18.20
